Time;durP1;ratioP1;P1;durP2;ratioP2;P2;SDS_P1;SDS_P2;PMS_P1;PMS_P2;Temp;Humidity;BMP_temperature;BMP_pressure;BME280_temperature;BME280_humidity;BME280_pressure;Samples;Min_cycle;Max_cycle;Signal;HPM_P1;HPM_P2
2022/05/26 00:01:45;;;;;;;19.42;11.57;;;;;;;8.99;100.00;98267.88;1744102;82;20982;-81
2022/05/26 00:04:11;;;;;;;13.13;10.15;;;;;;;8.92;100.00;98265.13;1740847;82;20981;-82
2022/05/26 00:06:37;;;;;;;21.95;11.10;;;;;;;8.91;100.00;98267.02;1706476;84;20945;-81
2022/05/26 00:09:03;;;;;;;12.30;9.58;;;;;;;8.86;100.00;98262.11;1735728;82;21012;-82
2022/05/26 00:11:33;;;;;;;15.93;10.85;;;;;;;8.81;100.00;98254.81;1712989;83;21098;-82
2022/05/26 00:14:07;;;;;;;12.28;9.08;;;;;;;8.81;100.00;98259.41;1770477;80;21040;-81
2022/05/26 00:16:29;;;;;;;16.00;9.03;;;;;;;8.79;100.00;98262.88;1771294;79;20977;-79
2022/05/26 00:18:56;;;;;;;12.80;7.67;;;;;;;8.81;100.00;98264.27;1774633;80;21479;-82
2022/05/26 00:21:22;;;;;;;11.50;7.20;;;;;;;8.90;100.00;98268.64;1779295;80;21301;-79
2022/05/26 00:23:48;;;;;;;13.93;9.15;;;;;;;8.98;100.00;98266.25;1775017;80;21125;-79
2022/05/26 00:26:14;;;;;;;11.85;8.63;;;;;;;9.08;100.00;98268.18;1779230;80;20886;-78
2022/05/26 00:28:40;;;;;;;12.70;9.03;;;;;;;9.17;100.00;98265.24;1774588;80;20969;-79
2022/05/26 00:31:06;;;;;;;15.23;9.08;;;;;;;9.23;100.00;98263.38;1761312;80;20928;-81
2022/05/26 00:33:31;;;;;;;13.50;8.63;;;;;;;9.26;100.00;98265.55;1741351;80;20890;-79
2022/05/26 00:36:04;;;;;;;13.15;8.95;;;;;;;9.30;100.00;98268.79;1737535;80;21335;-79
2022/05/26 00:38:30;;;;;;;12.63;9.30;;;;;;;9.32;100.00;98266.66;1743967;80;20968;-79
2022/05/26 00:41:09;;;;;;;13.00;8.05;;;;;;;9.35;100.00;98270.72;1778713;80;20957;-79
2022/05/26 00:43:35;;;;;;;14.15;9.03;;;;;;;9.36;100.00;98272.34;1778902;80;21005;-81
2022/05/26 00:46:07;;;;;;;10.23;7.83;;;;;;;9.34;100.00;98271.80;1779450;80;20980;-79
2022/05/26 00:48:38;;;;;;;14.70;8.65;;;;;;;9.35;100.00;98271.25;1777099;79;21185;-79
2022/05/26 00:51:04;;;;;;;12.45;8.48;;;;;;;9.35;100.00;98273.42;1779154;80;20994;-80
2022/05/26 00:53:43;;;;;;;14.70;8.13;;;;;;;9.38;100.00;98276.94;1779934;79;22458;-82
2022/05/26 00:56:21;;;;;;;9.93;7.47;;;;;;;9.36;100.00;98275.04;1779186;80;21068;-82
2022/05/26 00:58:51;;;;;;;12.05;7.25;;;;;;;9.38;100.00;98275.58;1775417;80;21067;-79
2022/05/26 01:01:17;;;;;;;12.20;9.20;;;;;;;9.39;100.00;98279.09;1758644;80;22334;-79
2022/05/26 01:03:56;;;;;;;11.57;8.53;;;;;;;9.33;100.00;98272.88;1779225;80;21362;-79
2022/05/26 01:06:34;;;;;;;13.15;9.23;;;;;;;9.33;100.00;98278.28;1761100;81;20972;-81
2022/05/26 01:09:03;;;;;;;13.00;8.37;;;;;;;9.31;100.00;98277.20;1762294;80;20992;-81
2022/05/26 01:11:33;;;;;;;11.70;7.92;;;;;;;9.27;100.00;98274.74;1778981;80;21280;-82
2022/05/26 01:14:34;;;;;;;11.60;7.20;;;;;;;9.24;100.00;98275.28;1778533;80;21893;-79
2022/05/26 01:17:51;;;;;;;12.58;6.95;;;;;;;9.25;100.00;98272.84;1717012;82;21491;-82
2022/05/26 01:20:38;;;;;;;11.75;7.40;;;;;;;9.20;100.00;98276.06;1744573;80;21050;-81
2022/05/26 01:23:45;;;;;;;8.18;5.97;;;;;;;9.10;100.00;98286.84;1779154;79;21064;-78
2022/05/26 01:26:43;;;;;;;12.70;7.10;;;;;;;8.98;100.00;98284.36;1778659;80;20980;-78
2022/05/26 01:29:49;;;;;;;17.67;7.30;;;;;;;8.79;100.00;98292.06;1778509;80;21940;-81
2022/05/26 01:32:27;;;;;;;11.05;6.58;;;;;;;8.76;100.00;98293.95;1779239;80;21473;-80
2022/05/26 01:35:22;;;;;;;12.70;6.47;;;;;;;8.66;100.00;98291.19;1779173;80;20997;-82
2022/05/26 01:38:14;;;;;;;11.45;7.20;;;;;;;8.57;100.00;98294.11;1779230;79;21052;-79
2022/05/26 01:40:58;;;;;;;10.45;7.15;;;;;;;8.40;100.00;98296.95;1776059;80;20981;-83
2022/05/26 01:43:49;;;;;;;11.20;6.65;;;;;;;8.27;100.00;98291.41;1774881;80;21112;-82
2022/05/26 01:46:40;;;;;;;10.50;6.60;;;;;;;8.16;100.00;98293.75;1772595;80;20984;-80
2022/05/26 01:49:35;;;;;;;11.03;7.80;;;;;;;7.97;100.00;98299.26;1777741;80;21024;-83
2022/05/26 01:52:27;;;;;;;13.18;7.37;;;;;;;7.84;100.00;98303.17;1777827;79;20977;-80
2022/05/26 01:55:05;;;;;;;8.90;5.83;;;;;;;7.80;100.00;98300.17;1774329;80;20981;-80
2022/05/26 01:57:49;;;;;;;12.55;6.05;;;;;;;7.81;100.00;98304.50;1779140;79;21080;-80
2022/05/26 02:00:18;;;;;;;9.18;6.87;;;;;;;7.79;100.00;98304.48;1752937;80;21087;-81
2022/05/26 02:02:55;;;;;;;9.43;5.55;;;;;;;7.77;100.00;98311.45;1779035;80;21065;-79
2022/05/26 02:05:24;;;;;;;13.80;7.60;;;;;;;7.73;100.00;98309.00;1772434;80;20984;-80
2022/05/26 02:08:11;;;;;;;7.40;5.12;;;;;;;7.67;100.00;98310.55;1779107;79;20970;-77
2022/05/26 02:10:55;;;;;;;8.98;4.60;;;;;;;7.67;100.00;98313.24;1762833;80;21246;-80
2022/05/26 02:13:32;;;;;;;13.03;6.60;;;;;;;7.68;100.00;98310.82;1776684;80;21001;-80
2022/05/26 02:16:14;;;;;;;13.20;7.67;;;;;;;7.63;100.00;98312.41;1779327;80;20981;-81
2022/05/26 02:19:12;;;;;;;10.28;6.45;;;;;;;7.60;100.00;98313.44;1779133;79;21068;-82
2022/05/26 02:21:49;;;;;;;11.88;7.45;;;;;;;7.57;100.00;98316.11;1752458;80;21048;-79
2022/05/26 02:24:23;;;;;;;11.60;6.83;;;;;;;7.55;100.00;98315.56;1757625;80;21291;-83
2022/05/26 02:26:49;;;;;;;9.83;6.22;;;;;;;7.60;100.00;98311.55;1766182;79;21064;-79
2022/05/26 02:31:59;;;;;;;8.20;6.08;;;;;;;7.68;100.00;98312.17;1772183;79;21048;-82
2022/05/26 02:34:25;;;;;;;9.83;6.58;;;;;;;7.60;100.00;98312.89;1757823;80;20991;-82
2022/05/26 02:36:55;;;;;;;8.95;5.87;;;;;;;7.57;100.00;98317.46;1769808;79;21321;-79
2022/05/26 02:39:21;;;;;;;12.43;6.60;;;;;;;7.55;100.00;98313.39;1745897;81;21431;-79
2022/05/26 02:41:47;;;;;;;9.48;4.85;;;;;;;7.59;100.00;98314.50;1774999;80;20989;-82
2022/05/26 02:44:12;;;;;;;10.55;6.35;;;;;;;7.66;100.00;98309.73;1774616;80;20905;-82
2022/05/26 02:46:52;;;;;;;10.63;7.30;;;;;;;7.69;100.00;98313.80;1778476;80;20882;-81
2022/05/26 02:49:39;;;;;;;13.28;6.67;;;;;;;7.67;100.00;98308.66;1779111;80;22049;-81
2022/05/26 02:52:26;;;;;;;9.43;5.92;;;;;;;7.67;100.00;98315.41;1743653;80;21041;-82
2022/05/26 02:55:30;;;;;;;16.35;5.17;;;;;;;7.63;100.00;98312.41;1766116;80;21015;-83
2022/05/26 02:58:04;;;;;;;10.05;6.20;;;;;;;7.65;100.00;98316.20;1748044;81;21019;-82
2022/05/26 03:00:42;;;;;;;9.33;5.62;;;;;;;7.68;100.00;98314.87;1772739;80;21012;-80
2022/05/26 03:03:34;;;;;;;6.70;4.92;;;;;;;7.77;100.00;98324.95;1778673;79;21842;-82
2022/05/26 03:06:17;;;;;;;7.28;4.65;;;;;;;7.85;100.00;98319.09;1766676;80;21487;-78
2022/05/26 03:08:43;;;;;;;8.75;5.17;;;;;;;7.93;100.00;98319.98;1774478;80;21036;-83
2022/05/26 03:11:18;;;;;;;7.85;4.83;;;;;;;7.96;100.00;98325.43;1779551;80;22225;-79
2022/05/26 03:13:44;;;;;;;7.28;4.40;;;;;;;7.98;100.00;98321.12;1775263;80;21491;-82
2022/05/26 03:16:10;;;;;;;8.18;4.10;;;;;;;8.05;100.00;98323.08;1779450;80;21127;-82
2022/05/26 03:18:36;;;;;;;5.55;3.60;;;;;;;8.09;100.00;98311.50;1774249;80;20867;-79
2022/05/26 03:21:04;;;;;;;7.33;4.45;;;;;;;8.13;100.00;98312.64;1779268;80;21023;-82
2022/05/26 03:23:30;;;;;;;9.55;4.58;;;;;;;8.15;100.00;98316.42;1779214;79;21000;-79
2022/05/26 03:25:57;;;;;;;8.50;4.65;;;;;;;8.18;100.00;98318.59;1784174;80;21060;-79
2022/05/26 03:28:25;;;;;;;7.20;4.35;;;;;;;8.19;100.00;98318.88;1779010;80;21096;-80
2022/05/26 03:30:51;;;;;;;9.18;4.85;;;;;;;8.24;100.00;98321.63;1752706;80;21049;-79
2022/05/26 03:33:17;;;;;;;8.48;4.50;;;;;;;8.35;100.00;98315.27;1779276;80;21575;-79
2022/05/26 03:41:14;;;;;;;12.88;4.67;;;;;;;8.63;100.00;98325.45;1758133;80;21309;-82
2022/05/26 03:43:43;;;;;;;11.83;4.78;;;;;;;8.68;100.00;98323.62;1775439;79;21004;-79
2022/05/26 03:46:09;;;;;;;13.58;4.97;;;;;;;8.70;100.00;98325.52;1752380;81;21517;-82
2022/05/26 03:48:36;;;;;;;7.50;5.45;;;;;;;8.78;100.00;98326.92;1769074;80;20979;-79
2022/05/26 03:51:02;;;;;;;9.70;4.58;;;;;;;8.88;100.00;98328.33;1779124;80;21029;-82
2022/05/26 03:53:28;;;;;;;10.20;3.50;;;;;;;8.97;100.00;98330.00;1779026;80;21058;-83
2022/05/26 03:55:54;;;;;;;14.35;4.30;;;;;;;9.05;100.00;98333.56;1764698;80;21097;-79
2022/05/26 03:58:20;;;;;;;16.00;6.35;;;;;;;9.09;100.00;98333.88;1718008;80;21089;-79
2022/05/26 04:00:46;;;;;;;6.90;5.12;;;;;;;9.16;100.00;98329.05;1737226;80;20983;-82
2022/05/26 04:03:13;;;;;;;7.90;5.28;;;;;;;9.17;99.04;98335.54;1739044;80;20901;-80
2022/05/26 04:05:39;;;;;;;8.15;5.08;;;;;;;9.23;98.70;98333.14;1778988;80;21188;-82
2022/05/26 04:08:06;;;;;;;15.95;7.75;;;;;;;9.37;99.05;98336.70;1779146;79;20908;-80
2022/05/26 04:10:32;;;;;;;13.53;8.75;;;;;;;9.50;99.16;98334.88;1752705;80;21016;-81
2022/05/26 04:12:58;;;;;;;13.08;8.45;;;;;;;9.61;98.94;98329.77;1779104;79;20862;-79
2022/05/26 04:15:24;;;;;;;9.88;5.87;;;;;;;9.71;98.77;98323.03;1775766;80;20910;-80
2022/05/26 04:17:50;;;;;;;9.88;4.83;;;;;;;9.76;98.49;98332.53;1779288;80;21236;-82
2022/05/26 04:20:19;;;;;;;8.23;3.90;;;;;;;9.76;97.92;98334.42;1754016;80;21616;-79
2022/05/26 04:22:45;;;;;;;11.15;5.08;;;;;;;9.61;97.80;98331.13;1787328;80;21029;-80
2022/05/26 04:25:11;;;;;;;5.90;4.78;;;;;;;9.71;98.20;98329.80;1780409;80;20986;-80
2022/05/26 04:27:37;;;;;;;10.43;4.92;;;;;;;9.81;97.92;98332.52;1779388;79;20956;-83
2022/05/26 04:30:05;;;;;;;6.17;4.00;;;;;;;9.96;97.97;98326.34;1779744;80;21329;-82
2022/05/26 04:32:31;;;;;;;10.32;4.05;;;;;;;10.08;97.29;98324.72;1780868;80;21005;-82
2022/05/26 04:34:57;;;;;;;5.17;4.28;;;;;;;10.22;96.72;98323.66;1776964;80;20961;-82
2022/05/26 04:37:25;;;;;;;22.22;4.35;;;;;;;10.22;95.33;98317.73;1776798;80;21751;-82
2022/05/26 04:39:55;;;;;;;7.42;4.12;;;;;;;10.30;95.51;98315.03;1769826;80;20993;-79
2022/05/26 04:42:20;;;;;;;11.88;4.08;;;;;;;10.40;95.10;98312.32;1769920;79;21086;-79
2022/05/26 04:44:46;;;;;;;6.58;3.80;;;;;;;10.48;94.83;98319.09;1758692;80;20951;-82
2022/05/26 04:47:13;;;;;;;6.28;3.98;;;;;;;10.59;94.10;98319.35;1774849;79;21576;-79
2022/05/26 04:49:39;;;;;;;8.25;3.98;;;;;;;10.67;94.13;98315.55;1779454;80;21033;-80
2022/05/26 04:52:10;;;;;;;5.80;4.00;;;;;;;10.77;94.16;98309.33;1743916;80;21051;-80
2022/05/26 04:54:37;;;;;;;5.67;4.35;;;;;;;10.92;93.97;98303.84;1740247;80;21146;-80
2022/05/26 04:57:04;;;;;;;5.22;3.75;;;;;;;11.10;92.94;98307.87;1769482;80;21009;-79
2022/05/26 04:59:30;;;;;;;8.68;4.67;;;;;;;11.17;92.73;98313.01;1776596;80;21080;-80
2022/05/26 05:01:56;;;;;;;7.85;4.67;;;;;;;11.28;92.31;98310.55;1777063;79;21032;-82
2022/05/26 05:04:25;;;;;;;9.05;4.40;;;;;;;11.35;93.23;98312.94;1781093;79;20874;-83
2022/05/26 05:06:52;;;;;;;;;;;;;;;11.52;93.32;98318.84;1790197;78;21146;-82
2022/05/26 05:09:18;;;;;;;8.45;4.33;;;;;;;11.67;93.06;98306.56;1774790;78;20565;-82
2022/05/26 05:11:44;;;;;;;8.38;4.25;;;;;;;11.76;93.21;98314.38;1775208;79;21033;-83
2022/05/26 05:14:10;;;;;;;11.60;4.92;;;;;;;;;;1769447;79;23343;-82
2022/05/26 05:16:44;;;;;;;6.22;3.70;;;;;;;12.00;91.89;98309.11;1777253;79;21448;-82
2022/05/26 05:19:10;;;;;;;4.97;3.98;;;;;;;12.07;91.04;98312.33;1757858;79;21149;-82
2022/05/26 05:21:51;;;;;;;7.78;4.22;;;;;;;12.15;91.32;98312.28;1766104;79;21592;-82
2022/05/26 05:24:41;;;;;;;10.05;6.08;;;;;;;12.31;91.20;98317.87;1758098;79;21013;-81
2022/05/26 05:27:13;;;;;;;13.05;5.20;;;;;;;12.42;90.04;98307.72;1771802;80;20970;-79
2022/05/26 05:29:39;;;;;;;4.22;3.50;;;;;;;12.53;89.60;98311.97;1755600;80;21020;-79
2022/05/26 05:32:19;;;;;;;27.22;23.30;;;;;;;12.67;89.33;98307.50;1764719;80;21710;-82
2022/05/26 05:34:52;;;;;;;17.20;4.47;;;;;;;12.78;90.00;98302.77;1766962;80;21092;-81
2022/05/26 05:37:18;;;;;;;8.65;4.00;;;;;;;13.02;89.42;98296.00;1768948;78;20997;-78
2022/05/26 05:39:43;;;;;;;5.05;3.65;;;;;;;13.25;90.28;98303.95;1778951;80;20940;-82
2022/05/26 05:42:09;;;;;;;5.40;3.67;;;;;;;13.46;88.09;98294.97;1771329;80;20957;-82
2022/05/26 05:44:35;;;;;;;5.92;3.45;;;;;;;13.70;88.76;98302.55;1765860;79;21081;-83
2022/05/26 05:47:01;;;;;;;12.23;3.60;;;;;;;13.81;87.32;98290.41;1774552;80;20925;-82
2022/05/26 05:49:31;;;;;;;4.67;3.08;;;;;;;13.90;87.57;98296.00;1779255;80;21012;-79
2022/05/26 05:52:06;;;;;;;5.17;3.08;;;;;;;14.01;86.22;98296.66;1779337;79;20972;-82
2022/05/26 05:54:32;;;;;;;6.25;3.12;;;;;;;14.10;85.66;98289.47;1771675;79;20988;-82
2022/05/26 05:56:58;;;;;;;5.95;3.50;;;;;;;14.23;84.36;98298.80;1778480;79;21126;-82
2022/05/26 05:59:24;;;;;;;6.85;3.58;;;;;;;14.27;85.34;98291.63;1777986;80;20920;-82
2022/05/26 06:01:50;;;;;;;7.08;3.80;;;;;;;14.44;85.07;98287.83;1776557;79;20941;-79
2022/05/26 06:04:16;;;;;;;4.22;3.40;;;;;;;14.61;84.42;98288.64;1767773;80;20954;-82
2022/05/26 06:06:43;;;;;;;11.28;3.80;;;;;;;14.65;84.13;98282.86;1749830;81;20985;-79
2022/05/26 06:09:13;;;;;;;6.33;3.75;;;;;;;14.73;83.25;98278.64;1766262;80;21081;-80
2022/05/26 06:11:41;;;;;;;11.78;4.33;;;;;;;14.79;84.49;98283.70;1762402;80;20958;-83
2022/05/26 06:14:07;;;;;;;6.90;3.52;;;;;;;15.03;85.04;98284.06;1771716;80;21040;-82
2022/05/26 06:16:33;;;;;;;5.35;3.22;;;;;;;15.29;85.10;98279.72;1764434;79;20904;-80
2022/05/26 06:19:00;;;;;;;6.60;3.75;;;;;;;15.57;84.67;98281.09;1771411;80;20961;-79
2022/05/26 06:21:26;;;;;;;6.58;4.33;;;;;;;15.75;84.33;98278.80;1750510;80;22093;-83
2022/05/26 06:23:55;;;;;;;4.28;3.33;;;;;;;15.93;83.40;98275.11;1750152;80;20927;-82
2022/05/26 06:26:20;;;;;;;5.05;3.33;;;;;;;16.06;82.70;98281.63;1779256;80;21032;-82
2022/05/26 06:31:30;;;;;;;7.40;3.15;;;;;;;16.29;80.38;98281.91;1779018;80;21080;-82
2022/05/26 06:39:13;;;;;;;4.45;2.47;;;;;;;16.57;78.45;98281.77;1740509;81;21020;-79
2022/05/26 06:44:23;;;;;;;10.60;4.42;;;;;;;16.82;79.98;98285.25;1766396;79;21025;-83
2022/05/26 06:46:49;;;;;;;3.42;2.08;;;;;;;17.15;78.93;98290.40;1739892;80;21116;-80
2022/05/26 06:49:15;;;;;;;5.92;4.05;;;;;;;17.36;76.71;98285.18;1774243;79;21559;-79
2022/05/26 06:51:43;;;;;;;3.67;2.58;;;;;;;17.44;75.98;98289.88;1778115;79;21079;-83
2022/05/26 06:54:09;;;;;;;2.52;2.00;;;;;;;17.66;74.46;98290.32;1774291;80;21003;-80
2022/05/26 06:56:35;;;;;;;6.00;2.62;;;;;;;17.68;72.85;98292.17;1768069;78;20945;-80
2022/05/26 06:59:01;;;;;;;7.55;4.75;;;;;;;17.74;73.23;98287.63;1771712;80;21025;-83
2022/05/26 07:01:27;;;;;;;2.58;2.00;;;;;;;17.83;71.87;98288.20;1777394;78;20945;-80
2022/05/26 07:03:53;;;;;;;3.92;2.12;;;;;;;17.95;69.94;98281.55;1766653;80;20956;-83
2022/05/26 07:06:23;;;;;;;8.98;3.40;;;;;;;17.87;70.12;98283.14;1772827;80;21513;-79
2022/05/26 07:08:49;;;;;;;10.08;3.65;;;;;;;18.10;70.82;98278.30;1777282;79;21087;-80
2022/05/26 07:11:15;;;;;;;2.95;2.62;;;;;;;18.54;70.48;98281.28;1758366;80;21156;-83
2022/05/26 07:13:41;;;;;;;8.53;4.17;;;;;;;18.70;68.65;98285.69;1772188;80;21414;-79
2022/05/26 07:16:07;;;;;;;3.37;2.47;;;;;;;18.86;70.27;98281.30;1767302;80;20853;-80
2022/05/26 07:18:33;;;;;;;2.77;2.00;;;;;;;19.09;69.23;98281.88;1776907;79;21035;-80
2022/05/26 07:21:03;;;;;;;5.80;3.47;;;;;;;19.24;66.26;98289.34;1773573;79;21044;-80
2022/05/26 07:23:29;;;;;;;6.47;2.52;;;;;;;19.27;66.59;98297.71;1774699;79;21890;-83
2022/05/26 07:25:55;;;;;;;5.12;2.15;;;;;;;19.35;64.76;98291.95;1768122;78;20969;-83
2022/05/26 07:28:23;;;;;;;2.98;2.08;;;;;;;19.74;64.94;98289.44;1778485;79;21033;-80
2022/05/26 07:30:49;;;;;;;3.45;2.12;;;;;;;20.26;63.28;98291.80;1774472;79;21407;-79
2022/05/26 07:33:15;;;;;;;5.55;2.80;;;;;;;20.70;62.87;98297.73;1774485;79;21111;-80
2022/05/26 07:35:41;;;;;;;5.72;2.42;;;;;;;21.07;61.21;98300.00;1747189;80;21127;-80
2022/05/26 07:43:37;;;;;;;2.90;2.05;;;;;;;22.34;56.98;98305.84;1742676;80;21045;-83
2022/05/26 07:46:02;;;;;;;4.72;2.40;;;;;;;22.41;55.70;98297.19;1763398;80;21027;-83
2022/05/26 07:48:29;;;;;;;4.10;1.80;;;;;;;22.63;56.19;98299.16;1784478;78;21082;-80
2022/05/26 07:50:55;;;;;;;4.22;2.17;;;;;;;23.09;55.43;98301.83;1782464;80;20972;-84
2022/05/26 07:53:21;;;;;;;4.55;1.80;;;;;;;23.49;55.73;98303.02;1788976;79;21677;-80
2022/05/26 07:55:47;;;;;;;6.72;2.47;;;;;;;23.84;54.26;98303.67;1775074;77;20924;-83
2022/05/26 07:58:13;;;;;;;3.30;1.95;;;;;;;24.27;53.56;98299.91;1784778;80;20928;-84
2022/05/26 08:00:39;;;;;;;3.92;1.77;;;;;;;24.48;51.71;98302.34;1779295;79;21126;-84
2022/05/26 08:03:05;;;;;;;3.58;1.60;;;;;;;24.67;49.56;98302.91;1780914;80;21461;-84
2022/05/26 08:05:32;;;;;;;9.15;5.60;;;;;;;24.86;44.98;98303.45;1783692;80;21036;-84
2022/05/26 08:07:58;;;;;;;2.87;1.72;;;;;;;24.87;44.18;98296.19;1784111;79;21004;-80
2022/05/26 08:10:24;;;;;;;4.78;2.33;;;;;;;25.03;44.22;98295.50;1785155;79;21051;-84
2022/05/26 08:12:50;;;;;;;4.17;3.22;;;;;;;25.33;44.61;98294.84;1741310;80;22340;-80
2022/05/26 08:15:16;;;;;;;7.95;3.75;;;;;;;24.57;44.34;98296.58;1782630;80;20951;-84
2022/05/26 08:17:42;;;;;;;3.90;2.80;;;;;;;23.43;44.40;98278.20;1799749;78;20973;-84
2022/05/26 08:20:10;;;;;;;6.45;2.87;;;;;;;22.92;46.53;98298.02;1782521;78;21511;-84
2022/05/26 08:22:36;;;;;;;5.22;1.90;;;;;;;23.22;46.12;98299.77;1785440;78;21004;-81
2022/05/26 08:25:02;;;;;;;7.28;2.25;;;;;;;23.29;45.25;98293.05;1780350;80;22036;-80
2022/05/26 08:27:28;;;;;;;2.08;1.32;;;;;;;24.06;43.87;98297.46;1790422;78;21144;-84
2022/05/26 08:29:56;;;;;;;2.22;1.60;;;;;;;23.90;44.24;98291.97;1782821;80;20985;-80
2022/05/26 08:32:22;;;;;;;5.33;1.80;;;;;;;23.20;44.91;98293.80;1780800;78;20997;-81
2022/05/26 08:34:49;;;;;;;4.37;1.57;;;;;;;22.53;44.87;98296.32;1779379;79;21499;-80
2022/05/26 08:37:19;;;;;;;3.77;1.50;;;;;;;22.06;44.76;98301.64;1782328;79;20990;-80
2022/05/26 08:39:45;;;;;;;14.25;2.90;;;;;;;21.69;45.07;98293.39;1777513;79;21032;-80
2022/05/26 08:42:15;;;;;;;4.80;1.90;;;;;;;21.59;46.46;98296.63;1787560;78;21262;-84
2022/05/26 08:44:42;;;;;;;4.37;1.90;;;;;;;21.68;45.91;98300.06;1763967;80;20991;-80
2022/05/26 08:47:15;;;;;;;5.58;1.92;;;;;;;21.68;46.69;98290.41;1785310;79;21625;-80
2022/05/26 08:49:52;;;;;;;2.55;1.70;;;;;;;21.95;46.88;98288.88;1786212;79;21985;-80
2022/05/26 08:52:36;;;;;;;3.33;2.00;;;;;;;21.64;47.46;98299.96;1786780;79;21024;-83
2022/05/26 08:55:16;;;;;;;3.70;1.98;;;;;;;21.19;46.10;98300.01;1768810;80;21441;-83
2022/05/26 08:58:06;;;;;;;6.20;2.60;;;;;;;20.86;47.89;98295.15;1764089;80;21000;-83
2022/05/26 09:00:33;;;;;;;2.15;1.30;;;;;;;23.05;46.42;98303.68;1769613;79;21067;-79
2022/05/26 09:03:00;;;;;;;6.03;1.55;;;;;;;24.01;43.02;98292.20;1766643;80;21146;-80
2022/05/26 09:05:28;;;;;;;3.67;1.30;;;;;;;23.62;43.71;98295.47;1776112;80;21107;-80
2022/05/26 09:13:46;;;;;;;2.55;0.80;;;;;;;25.83;37.68;98299.25;1772498;79;21080;-78
2022/05/26 09:16:12;;;;;;;1.65;0.90;;;;;;;26.38;37.02;98294.06;1791115;79;21134;-79
2022/05/26 09:18:38;;;;;;;1.50;0.70;;;;;;;26.06;37.41;98288.64;1790705;78;21469;-85
2022/05/26 09:21:26;;;;;;;2.83;0.90;;;;;;;25.08;36.84;98285.30;1783435;78;21058;-79
2022/05/26 09:23:53;;;;;;;19.05;2.35;;;;;;;24.41;37.30;98299.41;1785659;80;21080;-79
2022/05/26 09:26:22;;;;;;;5.03;0.90;;;;;;;24.02;37.55;98295.80;1787003;79;20956;-86
2022/05/26 09:28:52;;;;;;;2.42;1.07;;;;;;;25.84;36.66;98298.06;1776310;80;21435;-80
2022/05/26 09:31:25;;;;;;;2.67;1.50;;;;;;;26.95;33.88;98296.71;1781864;79;20965;-79
2022/05/26 09:34:10;;;;;;;5.08;1.47;;;;;;;26.24;33.09;98288.91;1787432;80;20921;-85
2022/05/26 09:36:56;;;;;;;5.20;1.22;;;;;;;26.90;31.30;98297.05;1776841;78;21127;-79
2022/05/26 09:39:42;;;;;;;2.47;1.12;;;;;;;25.18;33.58;98291.61;1786430;79;21491;-79
2022/05/26 09:42:22;;;;;;;8.15;1.77;;;;;;;24.88;34.36;98296.98;1745480;79;21025;-85
2022/05/26 09:44:58;;;;;;;2.47;1.10;;;;;;;23.82;34.98;98294.93;1747678;80;21034;-85
2022/05/26 09:47:54;;;;;;;9.55;5.35;;;;;;;23.03;36.74;98305.42;1779108;79;21036;-79
2022/05/26 09:50:40;;;;;;;8.20;2.50;;;;;;;22.85;37.23;98309.67;1753684;79;21448;-79
2022/05/26 09:53:09;;;;;;;2.65;1.15;;;;;;;23.04;36.42;98304.27;1771850;79;21012;-86
2022/05/26 09:55:54;;;;;;;2.35;1.35;;;;;;;24.94;34.66;98301.04;1752500;80;21152;-85
2022/05/26 09:58:37;;;;;;;6.85;1.10;;;;;;;24.95;33.47;98305.41;1762098;79;21061;-79
2022/05/26 10:01:07;;;;;;;8.85;1.00;;;;;;;26.06;32.60;98301.14;1771962;79;20965;-85
2022/05/26 10:03:53;;;;;;;4.65;1.00;;;;;;;27.16;30.26;98301.70;1737749;80;21524;-86
2022/05/26 10:06:31;;;;;;;6.00;0.80;;;;;;;27.46;27.67;98298.80;1768250;79;20984;-86
2022/05/26 10:09:25;;;;;;;5.53;2.02;;;;;;;28.06;28.20;98294.29;1771619;79;21983;-79
2022/05/26 10:12:02;;;;;;;3.67;1.00;;;;;;;29.83;26.81;98288.20;1761795;79;21461;-79
2022/05/26 10:15:04;;;;;;;1.98;0.80;;;;;;;31.46;25.47;98284.50;1770029;80;21071;-79
2022/05/26 10:17:45;;;;;;;5.22;1.72;;;;;;;32.37;25.91;98281.22;1770455;79;21576;-79
2022/05/26 10:20:48;;;;;;;4.30;1.02;;;;;;;30.00;26.69;98276.19;1772954;79;21048;-85
2022/05/26 10:23:38;;;;;;;5.25;1.30;;;;;;;28.59;27.96;98279.23;1718854;81;21080;-86
2022/05/26 10:26:39;;;;;;;9.88;2.60;;;;;;;27.35;29.43;98284.02;1769200;79;21009;-87
2022/05/26 10:29:31;;;;;;;3.95;1.20;;;;;;;26.29;29.36;98278.25;1776222;79;21082;-85
2022/05/26 10:32:14;;;;;;;5.42;1.10;;;;;;;28.66;28.41;98273.69;1770086;79;21559;-84
2022/05/26 10:35:07;;;;;;;3.67;0.88;;;;;;;28.29;28.70;98275.34;1771709;79;21052;-78
2022/05/26 10:37:53;;;;;;;5.00;1.40;;;;;;;29.71;26.38;98276.83;1766872;79;21775;-79
2022/05/26 10:41:03;;;;;;;3.22;0.72;;;;;;;28.93;28.04;98285.33;1775509;80;21029;-85
2022/05/26 10:43:47;;;;;;;2.20;1.00;;;;;;;28.93;26.44;98276.97;1772218;79;20969;-85
2022/05/26 10:46:14;;;;;;;4.53;1.30;;;;;;;30.66;25.86;98282.58;1773545;79;21317;-79
2022/05/26 10:48:48;;;;;;;6.33;4.65;;;;;;;31.39;24.85;98281.94;1773913;79;21095;-86
2022/05/26 10:51:22;;;;;;;8.93;1.30;;;;;;;31.69;24.50;98279.07;1773688;79;21155;-86
2022/05/26 10:54:06;;;;;;;2.62;1.20;;;;;;;29.44;23.52;98282.80;1772278;79;21119;-79
2022/05/26 10:56:46;;;;;;;3.52;0.90;;;;;;;28.09;24.45;98274.80;1772237;80;21084;-86
2022/05/26 10:59:33;;;;;;;3.10;0.93;;;;;;;27.07;26.06;98295.66;1772701;80;21072;-85
2022/05/26 11:02:22;;;;;;;5.95;0.90;;;;;;;29.81;23.86;98283.59;1758678;79;21555;-86
2022/05/26 11:05:13;;;;;;;11.57;1.22;;;;;;;28.59;24.35;98278.44;1743712;80;21640;-86
2022/05/26 11:07:58;;;;;;;2.83;1.27;;;;;;;29.91;24.89;98283.59;1760445;79;20990;-80
2022/05/26 11:10:42;;;;;;;3.87;1.10;;;;;;;30.88;21.34;98277.87;1742814;80;21417;-84
2022/05/26 11:13:19;;;;;;;5.45;0.93;;;;;;;31.22;21.34;98277.28;1737731;80;21163;-80
2022/05/26 11:18:54;;;;;;;;;;;;;;;33.59;20.21;98286.13;1759323;80;21661;-85
2022/05/26 11:21:21;;;;;;;3.83;0.90;;;;;;;33.62;20.28;98271.22;1767207;79;20188;-85
2022/05/26 11:23:47;;;;;;;4.90;1.25;;;;;;;34.68;18.57;98269.61;1768273;80;20941;-85
2022/05/26 11:26:24;;;;;;;3.45;0.80;;;;;;;34.29;19.43;98269.80;1778185;80;21001;-85
2022/05/26 11:28:58;;;;;;;3.83;1.12;;;;;;;34.04;17.97;98266.69;1744920;80;21107;-86
2022/05/26 11:37:30;;;;;;;3.35;0.93;;;;;;;36.60;16.64;98273.87;1760113;79;21016;-81
2022/05/26 11:40:02;;;;;;;6.92;1.10;;;;;;;33.74;19.17;98274.62;1750350;79;21017;-85
2022/05/26 11:42:32;;;;;;;5.05;1.27;;;;;;;34.85;18.67;98276.86;1764386;79;21055;-85
2022/05/26 11:45:25;;;;;;;5.42;1.85;;;;;;;33.07;19.70;98273.90;1762297;79;21313;-85
2022/05/26 11:47:58;;;;;;;2.62;1.40;;;;;;;31.78;20.93;98273.81;1771647;79;21014;-85
2022/05/26 11:50:44;;;;;;;2.72;1.60;;;;;;;31.23;21.34;98273.27;1741158;80;21095;-85
2022/05/26 11:53:15;;;;;;;2.22;1.10;;;;;;;29.21;23.59;98280.98;1685665;83;20965;-80
2022/05/26 11:55:51;;;;;;;2.45;0.98;;;;;;;29.31;23.39;98283.01;1732819;82;21071;-81
2022/05/26 11:58:38;;;;;;;5.00;1.20;;;;;;;29.03;23.65;98275.39;1762916;79;21760;-80
2022/05/26 12:01:25;;;;;;;4.87;1.10;;;;;;;29.47;23.26;98270.82;1698975;82;21117;-81
2022/05/26 12:04:22;;;;;;;2.40;0.90;;;;;;;31.93;21.10;98276.66;1723352;82;21023;-81
2022/05/26 12:06:55;;;;;;;1.05;0.50;;;;;;;32.27;20.44;98264.69;1697198;83;21112;-82
2022/05/26 12:09:43;;;;;;;2.83;1.17;;;;;;;33.49;19.91;98265.22;1694501;83;21262;-82
2022/05/26 12:12:23;;;;;;;2.77;1.25;;;;;;;34.26;19.05;98263.62;1774173;78;22196;-82
2022/05/26 12:14:55;;;;;;;4.83;1.22;;;;;;;34.98;19.34;98257.32;1767525;80;21036;-83
2022/05/26 12:17:52;;;;;;;4.83;0.90;;;;;;;35.50;18.23;98267.14;1772857;79;21029;-84
2022/05/26 12:20:27;;;;;;;1.17;0.78;;;;;;;36.00;18.54;98266.48;1770820;80;21001;-84
2022/05/26 12:23:04;;;;;;;2.60;0.98;;;;;;;36.34;17.41;98268.13;1774839;79;21078;-85
2022/05/26 12:25:34;;;;;;;;;;;;;;;34.75;19.13;98261.02;1773756;79;21295;-85
2022/05/26 12:28:05;;;;;;;5.05;1.10;;;;;;;32.51;20.04;98255.20;1777049;80;20148;-89
2022/05/26 12:30:42;;;;;;;17.62;1.37;;;;;;;30.88;21.83;98256.09;1769044;79;21030;-78
2022/05/26 12:33:32;;;;;;;1.90;1.22;;;;;;;31.88;21.90;98251.92;1777838;79;21009;-83
2022/05/26 12:36:24;;;;;;;5.12;1.07;;;;;;;31.26;22.44;98245.05;1778741;80;20972;-88
2022/05/26 12:39:43;;;;;;;8.98;2.33;;;;;;;31.64;22.92;98254.33;1774337;78;21370;-87
2022/05/26 12:42:20;;;;;;;3.27;1.80;;;;;;;32.89;22.35;98257.11;1772432;79;20937;-85